sensor_id;sensor_type;location;lat;lon;timestamp;P1;durP1;ratioP1;P2;durP2;ratioP2
21591;SDS011;10958;50.892;3.992;2022-10-13T00:00:38;19.52;;;9.45;;
21591;SDS011;10958;50.892;3.992;2022-10-13T00:03:05;14.98;;;9.13;;
21591;SDS011;10958;50.892;3.992;2022-10-13T00:05:31;14.75;;;8.50;;
21591;SDS011;10958;50.892;3.992;2022-10-13T00:07:58;15.90;;;9.65;;
21591;SDS011;10958;50.892;3.992;2022-10-13T00:10:24;20.05;;;9.88;;
21591;SDS011;10958;50.892;3.992;2022-10-13T00:12:50;16.38;;;9.77;;
21591;SDS011;10958;50.892;3.992;2022-10-13T00:15:16;16.42;;;9.57;;
21591;SDS011;10958;50.892;3.992;2022-10-13T00:17:42;15.30;;;9.73;;
21591;SDS011;10958;50.892;3.992;2022-10-13T00:20:09;19.38;;;9.80;;
21591;SDS011;10958;50.892;3.992;2022-10-13T00:22:36;12.55;;;8.73;;
21591;SDS011;10958;50.892;3.992;2022-10-13T00:25:04;15.18;;;9.18;;
21591;SDS011;10958;50.892;3.992;2022-10-13T00:27:30;16.23;;;9.20;;
21591;SDS011;10958;50.892;3.992;2022-10-13T00:29:57;15.95;;;9.02;;
21591;SDS011;10958;50.892;3.992;2022-10-13T00:32:23;16.73;;;9.70;;
21591;SDS011;10958;50.892;3.992;2022-10-13T00:34:49;14.20;;;9.07;;
21591;SDS011;10958;50.892;3.992;2022-10-13T00:37:16;15.98;;;9.18;;
21591;SDS011;10958;50.892;3.992;2022-10-13T00:39:42;18.90;;;9.60;;
21591;SDS011;10958;50.892;3.992;2022-10-13T00:42:11;14.25;;;8.30;;
21591;SDS011;10958;50.892;3.992;2022-10-13T00:47:46;13.57;;;9.18;;
21591;SDS011;10958;50.892;3.992;2022-10-13T00:52:44;12.38;;;7.75;;
21591;SDS011;10958;50.892;3.992;2022-10-13T00:57:44;18.25;;;9.20;;
21591;SDS011;10958;50.892;3.992;2022-10-13T01:00:13;15.40;;;8.70;;
21591;SDS011;10958;50.892;3.992;2022-10-13T01:02:39;14.27;;;8.90;;
21591;SDS011;10958;50.892;3.992;2022-10-13T01:05:05;16.15;;;8.27;;
21591;SDS011;10958;50.892;3.992;2022-10-13T01:07:32;14.73;;;8.52;;
21591;SDS011;10958;50.892;3.992;2022-10-13T01:09:58;10.80;;;7.88;;
21591;SDS011;10958;50.892;3.992;2022-10-13T01:12:34;13.68;;;8.43;;
21591;SDS011;10958;50.892;3.992;2022-10-13T01:15:27;17.03;;;9.27;;
21591;SDS011;10958;50.892;3.992;2022-10-13T01:18:04;15.45;;;8.57;;
21591;SDS011;10958;50.892;3.992;2022-10-13T01:20:52;17.02;;;9.35;;
21591;SDS011;10958;50.892;3.992;2022-10-13T01:32:00;13.68;;;9.07;;
21591;SDS011;10958;50.892;3.992;2022-10-13T01:34:32;14.95;;;9.45;;
21591;SDS011;10958;50.892;3.992;2022-10-13T01:39:39;20.35;;;9.27;;
21591;SDS011;10958;50.892;3.992;2022-10-13T01:42:14;18.33;;;10.05;;
21591;SDS011;10958;50.892;3.992;2022-10-13T01:44:51;20.42;;;9.50;;
21591;SDS011;10958;50.892;3.992;2022-10-13T01:47:19;14.18;;;8.95;;
21591;SDS011;10958;50.892;3.992;2022-10-13T01:49:46;18.75;;;10.20;;
21591;SDS011;10958;50.892;3.992;2022-10-13T01:52:15;18.02;;;9.43;;
21591;SDS011;10958;50.892;3.992;2022-10-13T01:54:50;16.35;;;9.50;;
21591;SDS011;10958;50.892;3.992;2022-10-13T02:00:13;17.92;;;9.18;;
21591;SDS011;10958;50.892;3.992;2022-10-13T02:05:46;14.48;;;9.20;;
21591;SDS011;10958;50.892;3.992;2022-10-13T02:11:23;19.73;;;9.35;;
21591;SDS011;10958;50.892;3.992;2022-10-13T02:14:01;21.38;;;10.40;;
21591;SDS011;10958;50.892;3.992;2022-10-13T02:16:42;22.10;;;9.55;;
21591;SDS011;10958;50.892;3.992;2022-10-13T02:19:13;15.07;;;9.32;;
21591;SDS011;10958;50.892;3.992;2022-10-13T02:21:40;17.85;;;9.45;;
21591;SDS011;10958;50.892;3.992;2022-10-13T02:24:08;16.02;;;9.80;;
21591;SDS011;10958;50.892;3.992;2022-10-13T02:26:34;22.33;;;9.40;;
21591;SDS011;10958;50.892;3.992;2022-10-13T02:29:11;16.58;;;9.13;;
21591;SDS011;10958;50.892;3.992;2022-10-13T02:31:39;17.60;;;9.27;;
21591;SDS011;10958;50.892;3.992;2022-10-13T02:34:05;16.52;;;9.70;;
21591;SDS011;10958;50.892;3.992;2022-10-13T02:36:31;14.43;;;9.57;;
21591;SDS011;10958;50.892;3.992;2022-10-13T02:38:57;16.45;;;9.85;;
21591;SDS011;10958;50.892;3.992;2022-10-13T02:41:23;16.05;;;9.40;;
21591;SDS011;10958;50.892;3.992;2022-10-13T02:43:49;16.05;;;9.80;;
21591;SDS011;10958;50.892;3.992;2022-10-13T02:46:15;19.10;;;9.55;;
21591;SDS011;10958;50.892;3.992;2022-10-13T02:48:43;16.30;;;9.70;;
21591;SDS011;10958;50.892;3.992;2022-10-13T02:51:08;17.33;;;9.15;;
21591;SDS011;10958;50.892;3.992;2022-10-13T02:53:34;18.05;;;8.25;;
21591;SDS011;10958;50.892;3.992;2022-10-13T02:55:59;20.33;;;10.00;;
21591;SDS011;10958;50.892;3.992;2022-10-13T02:58:25;17.60;;;9.50;;
21591;SDS011;10958;50.892;3.992;2022-10-13T03:00:51;19.80;;;10.02;;
21591;SDS011;10958;50.892;3.992;2022-10-13T03:03:17;18.80;;;9.75;;
21591;SDS011;10958;50.892;3.992;2022-10-13T03:05:43;17.15;;;9.40;;
21591;SDS011;10958;50.892;3.992;2022-10-13T03:08:09;15.05;;;10.20;;
21591;SDS011;10958;50.892;3.992;2022-10-13T03:10:36;18.10;;;9.57;;
21591;SDS011;10958;50.892;3.992;2022-10-13T03:13:02;18.23;;;10.65;;
21591;SDS011;10958;50.892;3.992;2022-10-13T03:15:28;18.08;;;9.60;;
21591;SDS011;10958;50.892;3.992;2022-10-13T03:17:54;19.80;;;10.88;;
21591;SDS011;10958;50.892;3.992;2022-10-13T03:20:19;20.30;;;11.55;;
21591;SDS011;10958;50.892;3.992;2022-10-13T03:22:47;17.20;;;10.30;;
21591;SDS011;10958;50.892;3.992;2022-10-13T03:25:18;19.77;;;10.82;;
21591;SDS011;10958;50.892;3.992;2022-10-13T03:27:43;19.83;;;11.68;;
21591;SDS011;10958;50.892;3.992;2022-10-13T03:30:10;20.42;;;11.40;;
21591;SDS011;10958;50.892;3.992;2022-10-13T03:32:36;20.02;;;11.15;;
21591;SDS011;10958;50.892;3.992;2022-10-13T03:35:01;16.42;;;11.65;;
21591;SDS011;10958;50.892;3.992;2022-10-13T03:37:28;21.23;;;12.18;;
21591;SDS011;10958;50.892;3.992;2022-10-13T03:39:54;23.38;;;12.00;;
21591;SDS011;10958;50.892;3.992;2022-10-13T03:42:20;24.00;;;12.23;;
21591;SDS011;10958;50.892;3.992;2022-10-13T03:44:48;23.80;;;11.60;;
21591;SDS011;10958;50.892;3.992;2022-10-13T03:47:14;20.88;;;12.18;;
21591;SDS011;10958;50.892;3.992;2022-10-13T03:49:40;22.05;;;12.27;;
21591;SDS011;10958;50.892;3.992;2022-10-13T03:52:08;23.83;;;12.48;;
21591;SDS011;10958;50.892;3.992;2022-10-13T03:54:35;29.23;;;13.77;;
21591;SDS011;10958;50.892;3.992;2022-10-13T03:57:00;25.10;;;13.40;;
21591;SDS011;10958;50.892;3.992;2022-10-13T03:59:26;28.35;;;13.80;;
21591;SDS011;10958;50.892;3.992;2022-10-13T04:01:53;24.10;;;13.48;;
21591;SDS011;10958;50.892;3.992;2022-10-13T04:04:21;25.30;;;13.87;;
21591;SDS011;10958;50.892;3.992;2022-10-13T04:06:47;24.13;;;13.68;;
21591;SDS011;10958;50.892;3.992;2022-10-13T04:09:13;24.67;;;13.68;;
21591;SDS011;10958;50.892;3.992;2022-10-13T04:11:39;25.92;;;14.35;;
21591;SDS011;10958;50.892;3.992;2022-10-13T04:14:07;27.13;;;14.48;;
21591;SDS011;10958;50.892;3.992;2022-10-13T04:16:33;29.42;;;14.50;;
21591;SDS011;10958;50.892;3.992;2022-10-13T04:19:03;26.58;;;13.63;;
21591;SDS011;10958;50.892;3.992;2022-10-13T04:21:31;23.13;;;14.30;;
21591;SDS011;10958;50.892;3.992;2022-10-13T04:23:58;28.80;;;14.60;;
21591;SDS011;10958;50.892;3.992;2022-10-13T04:26:25;24.73;;;13.77;;
21591;SDS011;10958;50.892;3.992;2022-10-13T04:28:55;24.15;;;13.88;;
21591;SDS011;10958;50.892;3.992;2022-10-13T04:31:23;30.83;;;14.90;;
21591;SDS011;10958;50.892;3.992;2022-10-13T04:36:25;25.30;;;14.07;;
21591;SDS011;10958;50.892;3.992;2022-10-13T04:38:53;29.83;;;15.50;;
21591;SDS011;10958;50.892;3.992;2022-10-13T04:41:20;23.95;;;15.00;;
21591;SDS011;10958;50.892;3.992;2022-10-13T04:43:47;27.13;;;14.25;;
21591;SDS011;10958;50.892;3.992;2022-10-13T04:46:14;31.42;;;13.98;;
21591;SDS011;10958;50.892;3.992;2022-10-13T04:48:44;29.35;;;14.55;;
21591;SDS011;10958;50.892;3.992;2022-10-13T04:51:14;29.00;;;14.48;;
21591;SDS011;10958;50.892;3.992;2022-10-13T04:53:44;28.17;;;15.15;;
21591;SDS011;10958;50.892;3.992;2022-10-13T04:56:12;27.63;;;14.23;;
21591;SDS011;10958;50.892;3.992;2022-10-13T04:58:42;25.30;;;14.70;;
21591;SDS011;10958;50.892;3.992;2022-10-13T05:01:14;26.80;;;14.35;;
21591;SDS011;10958;50.892;3.992;2022-10-13T05:03:41;26.38;;;14.25;;
21591;SDS011;10958;50.892;3.992;2022-10-13T05:06:18;27.40;;;14.20;;
21591;SDS011;10958;50.892;3.992;2022-10-13T05:08:47;28.92;;;15.25;;
21591;SDS011;10958;50.892;3.992;2022-10-13T05:11:13;30.17;;;14.90;;
21591;SDS011;10958;50.892;3.992;2022-10-13T05:13:43;26.08;;;15.73;;
21591;SDS011;10958;50.892;3.992;2022-10-13T05:16:10;25.45;;;14.57;;
21591;SDS011;10958;50.892;3.992;2022-10-13T05:18:40;30.30;;;14.48;;
21591;SDS011;10958;50.892;3.992;2022-10-13T05:21:12;24.88;;;14.50;;
21591;SDS011;10958;50.892;3.992;2022-10-13T05:23:40;28.73;;;15.25;;
21591;SDS011;10958;50.892;3.992;2022-10-13T05:26:07;28.23;;;15.50;;
21591;SDS011;10958;50.892;3.992;2022-10-13T05:28:34;23.80;;;15.13;;
21591;SDS011;10958;50.892;3.992;2022-10-13T05:31:10;26.20;;;14.90;;
21591;SDS011;10958;50.892;3.992;2022-10-13T05:33:45;28.10;;;14.68;;
21591;SDS011;10958;50.892;3.992;2022-10-13T05:36:15;27.27;;;15.00;;
21591;SDS011;10958;50.892;3.992;2022-10-13T05:38:42;24.30;;;14.90;;
21591;SDS011;10958;50.892;3.992;2022-10-13T05:41:10;28.30;;;14.90;;
21591;SDS011;10958;50.892;3.992;2022-10-13T05:43:37;25.27;;;15.32;;
21591;SDS011;10958;50.892;3.992;2022-10-13T05:46:07;24.90;;;15.63;;
21591;SDS011;10958;50.892;3.992;2022-10-13T05:49:14;24.50;;;15.05;;
21591;SDS011;10958;50.892;3.992;2022-10-13T05:51:43;30.48;;;15.43;;
21591;SDS011;10958;50.892;3.992;2022-10-13T05:56:59;25.97;;;15.13;;
21591;SDS011;10958;50.892;3.992;2022-10-13T05:59:46;24.20;;;15.77;;
21591;SDS011;10958;50.892;3.992;2022-10-13T06:02:15;27.40;;;15.35;;
21591;SDS011;10958;50.892;3.992;2022-10-13T06:04:44;26.33;;;16.50;;
21591;SDS011;10958;50.892;3.992;2022-10-13T06:07:12;27.88;;;15.98;;
21591;SDS011;10958;50.892;3.992;2022-10-13T06:09:38;26.88;;;15.05;;
21591;SDS011;10958;50.892;3.992;2022-10-13T06:12:08;31.42;;;14.50;;
21591;SDS011;10958;50.892;3.992;2022-10-13T06:14:36;30.17;;;14.88;;
21591;SDS011;10958;50.892;3.992;2022-10-13T06:17:02;27.80;;;17.27;;
21591;SDS011;10958;50.892;3.992;2022-10-13T06:19:31;29.10;;;15.30;;
21591;SDS011;10958;50.892;3.992;2022-10-13T06:21:57;24.88;;;15.70;;
21591;SDS011;10958;50.892;3.992;2022-10-13T06:24:22;28.48;;;15.18;;
21591;SDS011;10958;50.892;3.992;2022-10-13T06:26:50;26.80;;;15.02;;
21591;SDS011;10958;50.892;3.992;2022-10-13T06:29:16;25.83;;;15.00;;
21591;SDS011;10958;50.892;3.992;2022-10-13T06:31:42;22.27;;;14.20;;
21591;SDS011;10958;50.892;3.992;2022-10-13T06:34:08;26.90;;;15.98;;
21591;SDS011;10958;50.892;3.992;2022-10-13T06:36:34;25.55;;;14.55;;
21591;SDS011;10958;50.892;3.992;2022-10-13T06:39:00;25.17;;;14.73;;
21591;SDS011;10958;50.892;3.992;2022-10-13T06:41:26;22.60;;;14.27;;
21591;SDS011;10958;50.892;3.992;2022-10-13T06:43:51;30.05;;;15.38;;
21591;SDS011;10958;50.892;3.992;2022-10-13T06:46:17;24.02;;;15.40;;
21591;SDS011;10958;50.892;3.992;2022-10-13T06:48:43;26.20;;;14.75;;
21591;SDS011;10958;50.892;3.992;2022-10-13T06:51:09;23.95;;;14.65;;
21591;SDS011;10958;50.892;3.992;2022-10-13T06:53:36;23.88;;;15.30;;
21591;SDS011;10958;50.892;3.992;2022-10-13T06:56:02;26.60;;;15.15;;
21591;SDS011;10958;50.892;3.992;2022-10-13T06:58:29;28.52;;;15.73;;
21591;SDS011;10958;50.892;3.992;2022-10-13T07:00:55;24.17;;;14.43;;
21591;SDS011;10958;50.892;3.992;2022-10-13T07:03:24;28.50;;;15.13;;
21591;SDS011;10958;50.892;3.992;2022-10-13T07:05:52;30.33;;;15.07;;
21591;SDS011;10958;50.892;3.992;2022-10-13T07:08:18;25.40;;;15.10;;
21591;SDS011;10958;50.892;3.992;2022-10-13T07:10:44;24.35;;;14.68;;
21591;SDS011;10958;50.892;3.992;2022-10-13T07:13:10;29.45;;;14.52;;
21591;SDS011;10958;50.892;3.992;2022-10-13T07:15:37;26.88;;;15.10;;
21591;SDS011;10958;50.892;3.992;2022-10-13T07:18:04;26.70;;;14.75;;
21591;SDS011;10958;50.892;3.992;2022-10-13T07:20:30;27.30;;;14.70;;
21591;SDS011;10958;50.892;3.992;2022-10-13T07:22:56;25.27;;;14.18;;
21591;SDS011;10958;50.892;3.992;2022-10-13T07:25:22;22.85;;;14.57;;
21591;SDS011;10958;50.892;3.992;2022-10-13T07:27:47;24.35;;;14.77;;
21591;SDS011;10958;50.892;3.992;2022-10-13T07:30:16;22.00;;;14.48;;
21591;SDS011;10958;50.892;3.992;2022-10-13T07:32:42;22.83;;;13.77;;
21591;SDS011;10958;50.892;3.992;2022-10-13T07:35:09;23.73;;;13.20;;
21591;SDS011;10958;50.892;3.992;2022-10-13T07:37:36;26.80;;;14.07;;
21591;SDS011;10958;50.892;3.992;2022-10-13T07:40:03;23.42;;;13.82;;
21591;SDS011;10958;50.892;3.992;2022-10-13T07:42:29;24.77;;;13.93;;
21591;SDS011;10958;50.892;3.992;2022-10-13T07:44:55;23.55;;;13.43;;
21591;SDS011;10958;50.892;3.992;2022-10-13T07:47:21;25.50;;;14.30;;
21591;SDS011;10958;50.892;3.992;2022-10-13T07:49:47;22.00;;;12.82;;
21591;SDS011;10958;50.892;3.992;2022-10-13T07:52:13;24.48;;;12.98;;
21591;SDS011;10958;50.892;3.992;2022-10-13T07:54:39;24.70;;;12.82;;
21591;SDS011;10958;50.892;3.992;2022-10-13T07:57:04;20.48;;;11.98;;
21591;SDS011;10958;50.892;3.992;2022-10-13T07:59:31;22.15;;;12.98;;
21591;SDS011;10958;50.892;3.992;2022-10-13T08:01:57;24.50;;;13.88;;
21591;SDS011;10958;50.892;3.992;2022-10-13T08:04:27;20.40;;;12.00;;
21591;SDS011;10958;50.892;3.992;2022-10-13T08:06:56;21.98;;;12.90;;
21591;SDS011;10958;50.892;3.992;2022-10-13T08:09:22;27.25;;;13.60;;
21591;SDS011;10958;50.892;3.992;2022-10-13T08:11:49;24.83;;;12.65;;
21591;SDS011;10958;50.892;3.992;2022-10-13T08:14:15;23.80;;;12.00;;
21591;SDS011;10958;50.892;3.992;2022-10-13T08:16:43;21.67;;;12.52;;
21591;SDS011;10958;50.892;3.992;2022-10-13T08:19:13;23.40;;;13.27;;
21591;SDS011;10958;50.892;3.992;2022-10-13T08:21:44;20.83;;;13.40;;
21591;SDS011;10958;50.892;3.992;2022-10-13T08:24:11;23.40;;;12.95;;
21591;SDS011;10958;50.892;3.992;2022-10-13T08:26:40;22.65;;;12.32;;
21591;SDS011;10958;50.892;3.992;2022-10-13T08:29:07;20.60;;;12.82;;
21591;SDS011;10958;50.892;3.992;2022-10-13T08:31:33;19.00;;;11.38;;
21591;SDS011;10958;50.892;3.992;2022-10-13T08:34:01;17.20;;;11.95;;
21591;SDS011;10958;50.892;3.992;2022-10-13T08:36:27;21.42;;;12.48;;
21591;SDS011;10958;50.892;3.992;2022-10-13T08:38:52;22.88;;;13.60;;
21591;SDS011;10958;50.892;3.992;2022-10-13T08:41:20;20.38;;;12.27;;
21591;SDS011;10958;50.892;3.992;2022-10-13T08:43:52;20.58;;;12.18;;
21591;SDS011;10958;50.892;3.992;2022-10-13T08:46:25;18.35;;;11.52;;
21591;SDS011;10958;50.892;3.992;2022-10-13T08:48:55;18.98;;;11.60;;
21591;SDS011;10958;50.892;3.992;2022-10-13T08:51:26;23.92;;;11.75;;
21591;SDS011;10958;50.892;3.992;2022-10-13T08:53:54;17.52;;;11.65;;
21591;SDS011;10958;50.892;3.992;2022-10-13T08:56:53;21.00;;;12.93;;
21591;SDS011;10958;50.892;3.992;2022-10-13T08:59:17;24.42;;;12.60;;
21591;SDS011;10958;50.892;3.992;2022-10-13T09:01:45;20.05;;;12.35;;
21591;SDS011;10958;50.892;3.992;2022-10-13T09:09:41;25.55;;;12.85;;
21591;SDS011;10958;50.892;3.992;2022-10-13T09:12:13;23.42;;;12.65;;
21591;SDS011;10958;50.892;3.992;2022-10-13T09:14:39;23.60;;;13.38;;
21591;SDS011;10958;50.892;3.992;2022-10-13T09:22:38;20.35;;;12.35;;
21591;SDS011;10958;50.892;3.992;2022-10-13T09:27:43;20.20;;;11.60;;
21591;SDS011;10958;50.892;3.992;2022-10-13T09:30:35;21.15;;;11.60;;
21591;SDS011;10958;50.892;3.992;2022-10-13T09:38:09;18.25;;;10.80;;
21591;SDS011;10958;50.892;3.992;2022-10-13T09:40:38;19.58;;;12.10;;
21591;SDS011;10958;50.892;3.992;2022-10-13T09:48:24;20.58;;;11.40;;
21591;SDS011;10958;50.892;3.992;2022-10-13T09:50:53;16.85;;;11.60;;
21591;SDS011;10958;50.892;3.992;2022-10-13T10:03:34;19.55;;;11.38;;
21591;SDS011;10958;50.892;3.992;2022-10-13T10:06:03;18.10;;;11.73;;
21591;SDS011;10958;50.892;3.992;2022-10-13T10:08:39;20.38;;;11.73;;
21591;SDS011;10958;50.892;3.992;2022-10-13T10:11:11;22.48;;;11.60;;
21591;SDS011;10958;50.892;3.992;2022-10-13T10:13:59;23.10;;;11.40;;
21591;SDS011;10958;50.892;3.992;2022-10-13T10:16:41;19.05;;;11.00;;
21591;SDS011;10958;50.892;3.992;2022-10-13T10:19:21;18.05;;;10.82;;
21591;SDS011;10958;50.892;3.992;2022-10-13T10:27:34;21.17;;;11.85;;
21591;SDS011;10958;50.892;3.992;2022-10-13T10:30:15;18.23;;;11.40;;
21591;SDS011;10958;50.892;3.992;2022-10-13T10:35:37;19.08;;;11.07;;
21591;SDS011;10958;50.892;3.992;2022-10-13T10:44:01;26.55;;;12.82;;
21591;SDS011;10958;50.892;3.992;2022-10-13T10:46:45;21.13;;;13.15;;
21591;SDS011;10958;50.892;3.992;2022-10-13T10:49:46;21.33;;;12.70;;
21591;SDS011;10958;50.892;3.992;2022-10-13T10:52:07;28.50;;;15.25;;
21591;SDS011;10958;50.892;3.992;2022-10-13T10:55:05;20.38;;;12.95;;
21591;SDS011;10958;50.892;3.992;2022-10-13T11:00:16;25.05;;;13.85;;
21591;SDS011;10958;50.892;3.992;2022-10-13T11:05:13;23.52;;;13.55;;
21591;SDS011;10958;50.892;3.992;2022-10-13T11:15:27;20.92;;;12.55;;
21591;SDS011;10958;50.892;3.992;2022-10-13T11:21:09;20.92;;;13.05;;
21591;SDS011;10958;50.892;3.992;2022-10-13T11:23:36;22.02;;;12.68;;
21591;SDS011;10958;50.892;3.992;2022-10-13T11:28:45;20.42;;;11.88;;
21591;SDS011;10958;50.892;3.992;2022-10-13T11:56:02;22.15;;;14.35;;
21591;SDS011;10958;50.892;3.992;2022-10-13T11:58:31;23.88;;;13.60;;
21591;SDS011;10958;50.892;3.992;2022-10-13T12:01:02;28.23;;;14.32;;
21591;SDS011;10958;50.892;3.992;2022-10-13T12:03:33;26.45;;;15.63;;
21591;SDS011;10958;50.892;3.992;2022-10-13T12:06:04;29.20;;;16.20;;
21591;SDS011;10958;50.892;3.992;2022-10-13T12:08:57;28.48;;;16.75;;
21591;SDS011;10958;50.892;3.992;2022-10-13T12:11:25;33.72;;;18.40;;
21591;SDS011;10958;50.892;3.992;2022-10-13T12:13:53;33.33;;;18.63;;
21591;SDS011;10958;50.892;3.992;2022-10-13T12:16:20;27.23;;;15.85;;
21591;SDS011;10958;50.892;3.992;2022-10-13T12:18:48;26.63;;;14.85;;
21591;SDS011;10958;50.892;3.992;2022-10-13T12:21:15;24.27;;;14.57;;
21591;SDS011;10958;50.892;3.992;2022-10-13T12:23:49;25.48;;;15.32;;
21591;SDS011;10958;50.892;3.992;2022-10-13T12:26:20;23.77;;;15.57;;
21591;SDS011;10958;50.892;3.992;2022-10-13T12:28:53;26.13;;;17.63;;
21591;SDS011;10958;50.892;3.992;2022-10-13T12:31:25;26.55;;;17.52;;
21591;SDS011;10958;50.892;3.992;2022-10-13T12:36:29;31.90;;;18.63;;
21591;SDS011;10958;50.892;3.992;2022-10-13T12:39:06;37.63;;;20.10;;
21591;SDS011;10958;50.892;3.992;2022-10-13T12:41:39;28.27;;;18.83;;
21591;SDS011;10958;50.892;3.992;2022-10-13T12:44:16;29.52;;;18.27;;
21591;SDS011;10958;50.892;3.992;2022-10-13T12:46:52;30.00;;;18.05;;
21591;SDS011;10958;50.892;3.992;2022-10-13T12:54:51;35.83;;;22.08;;
21591;SDS011;10958;50.892;3.992;2022-10-13T12:59:46;24.63;;;16.88;;
21591;SDS011;10958;50.892;3.992;2022-10-13T13:02:18;23.58;;;14.95;;
21591;SDS011;10958;50.892;3.992;2022-10-13T13:04:56;20.40;;;15.23;;
21591;SDS011;10958;50.892;3.992;2022-10-13T13:07:28;20.88;;;14.02;;
21591;SDS011;10958;50.892;3.992;2022-10-13T13:12:32;20.67;;;13.85;;
21591;SDS011;10958;50.892;3.992;2022-10-13T13:17:49;24.58;;;13.73;;
21591;SDS011;10958;50.892;3.992;2022-10-13T13:22:52;21.23;;;13.73;;
21591;SDS011;10958;50.892;3.992;2022-10-13T13:25:18;26.10;;;16.00;;
21591;SDS011;10958;50.892;3.992;2022-10-13T13:27:44;18.90;;;13.73;;
21591;SDS011;10958;50.892;3.992;2022-10-13T13:30:14;24.65;;;14.60;;
21591;SDS011;10958;50.892;3.992;2022-10-13T13:32:41;24.83;;;14.73;;
21591;SDS011;10958;50.892;3.992;2022-10-13T13:35:07;28.27;;;15.32;;
21591;SDS011;10958;50.892;3.992;2022-10-13T13:40:02;20.27;;;13.73;;
21591;SDS011;10958;50.892;3.992;2022-10-13T13:42:29;21.27;;;14.68;;
21591;SDS011;10958;50.892;3.992;2022-10-13T13:44:56;20.67;;;14.15;;
21591;SDS011;10958;50.892;3.992;2022-10-13T13:47:22;22.20;;;15.20;;
21591;SDS011;10958;50.892;3.992;2022-10-13T13:49:50;21.92;;;14.73;;
21591;SDS011;10958;50.892;3.992;2022-10-13T13:52:17;24.25;;;15.05;;
21591;SDS011;10958;50.892;3.992;2022-10-13T13:54:44;24.75;;;15.48;;
21591;SDS011;10958;50.892;3.992;2022-10-13T13:57:11;29.25;;;17.50;;
21591;SDS011;10958;50.892;3.992;2022-10-13T13:59:38;23.30;;;15.32;;
21591;SDS011;10958;50.892;3.992;2022-10-13T14:02:05;23.30;;;16.60;;
21591;SDS011;10958;50.892;3.992;2022-10-13T14:04:32;20.65;;;15.25;;
21591;SDS011;10958;50.892;3.992;2022-10-13T14:07:01;26.08;;;17.48;;
21591;SDS011;10958;50.892;3.992;2022-10-13T14:09:26;30.30;;;17.13;;
21591;SDS011;10958;50.892;3.992;2022-10-13T14:11:54;25.83;;;14.85;;
21591;SDS011;10958;50.892;3.992;2022-10-13T14:14:20;23.15;;;15.05;;
21591;SDS011;10958;50.892;3.992;2022-10-13T14:16:48;23.05;;;14.50;;
21591;SDS011;10958;50.892;3.992;2022-10-13T14:19:17;23.98;;;14.38;;
21591;SDS011;10958;50.892;3.992;2022-10-13T14:21:45;18.25;;;13.98;;
21591;SDS011;10958;50.892;3.992;2022-10-13T14:24:11;27.77;;;14.82;;
21591;SDS011;10958;50.892;3.992;2022-10-13T14:26:37;23.48;;;15.18;;
21591;SDS011;10958;50.892;3.992;2022-10-13T14:29:03;20.52;;;13.90;;
21591;SDS011;10958;50.892;3.992;2022-10-13T14:31:29;22.98;;;14.50;;
21591;SDS011;10958;50.892;3.992;2022-10-13T14:33:55;29.33;;;15.85;;
21591;SDS011;10958;50.892;3.992;2022-10-13T14:36:21;27.38;;;16.95;;
21591;SDS011;10958;50.892;3.992;2022-10-13T14:38:46;25.25;;;15.30;;
21591;SDS011;10958;50.892;3.992;2022-10-13T14:41:12;30.20;;;17.63;;
21591;SDS011;10958;50.892;3.992;2022-10-13T14:43:41;25.07;;;16.40;;
21591;SDS011;10958;50.892;3.992;2022-10-13T14:46:06;22.65;;;15.60;;
21591;SDS011;10958;50.892;3.992;2022-10-13T14:48:33;22.50;;;14.48;;
21591;SDS011;10958;50.892;3.992;2022-10-13T14:51:03;22.25;;;13.35;;
21591;SDS011;10958;50.892;3.992;2022-10-13T14:53:33;21.45;;;14.23;;
21591;SDS011;10958;50.892;3.992;2022-10-13T14:56:01;21.73;;;15.05;;
21591;SDS011;10958;50.892;3.992;2022-10-13T14:58:26;21.45;;;13.70;;
21591;SDS011;10958;50.892;3.992;2022-10-13T15:00:52;24.10;;;15.30;;
21591;SDS011;10958;50.892;3.992;2022-10-13T15:03:19;21.55;;;14.60;;
21591;SDS011;10958;50.892;3.992;2022-10-13T15:05:46;19.08;;;14.90;;
21591;SDS011;10958;50.892;3.992;2022-10-13T15:08:14;20.05;;;13.00;;
21591;SDS011;10958;50.892;3.992;2022-10-13T15:10:40;18.37;;;13.60;;
21591;SDS011;10958;50.892;3.992;2022-10-13T15:13:09;17.35;;;12.82;;
21591;SDS011;10958;50.892;3.992;2022-10-13T15:15:35;17.88;;;11.68;;
21591;SDS011;10958;50.892;3.992;2022-10-13T15:18:03;17.60;;;11.48;;
21591;SDS011;10958;50.892;3.992;2022-10-13T15:20:29;17.25;;;10.75;;
21591;SDS011;10958;50.892;3.992;2022-10-13T15:22:57;14.40;;;10.25;;
21591;SDS011;10958;50.892;3.992;2022-10-13T15:25:23;17.63;;;9.88;;
21591;SDS011;10958;50.892;3.992;2022-10-13T15:27:48;14.63;;;9.23;;
21591;SDS011;10958;50.892;3.992;2022-10-13T15:30:14;11.48;;;8.20;;
21591;SDS011;10958;50.892;3.992;2022-10-13T15:32:40;9.73;;;7.50;;
21591;SDS011;10958;50.892;3.992;2022-10-13T15:35:06;10.35;;;6.60;;
21591;SDS011;10958;50.892;3.992;2022-10-13T15:37:32;13.13;;;7.32;;
21591;SDS011;10958;50.892;3.992;2022-10-13T15:39:58;11.77;;;7.57;;
21591;SDS011;10958;50.892;3.992;2022-10-13T15:42:23;8.35;;;7.18;;
21591;SDS011;10958;50.892;3.992;2022-10-13T15:44:51;11.98;;;8.52;;
21591;SDS011;10958;50.892;3.992;2022-10-13T15:47:17;12.38;;;7.70;;
21591;SDS011;10958;50.892;3.992;2022-10-13T15:49:43;11.98;;;8.23;;
21591;SDS011;10958;50.892;3.992;2022-10-13T15:52:09;13.05;;;8.52;;
21591;SDS011;10958;50.892;3.992;2022-10-13T15:54:34;14.50;;;10.38;;
21591;SDS011;10958;50.892;3.992;2022-10-13T15:57:02;10.77;;;8.02;;
21591;SDS011;10958;50.892;3.992;2022-10-13T15:59:28;17.00;;;10.97;;
21591;SDS011;10958;50.892;3.992;2022-10-13T16:01:54;15.13;;;8.73;;
21591;SDS011;10958;50.892;3.992;2022-10-13T16:04:20;14.82;;;10.15;;
21591;SDS011;10958;50.892;3.992;2022-10-13T16:06:45;10.70;;;8.38;;
21591;SDS011;10958;50.892;3.992;2022-10-13T16:09:11;12.10;;;8.75;;
21591;SDS011;10958;50.892;3.992;2022-10-13T16:11:37;11.25;;;8.40;;
21591;SDS011;10958;50.892;3.992;2022-10-13T16:14:02;12.10;;;9.15;;
21591;SDS011;10958;50.892;3.992;2022-10-13T16:16:31;14.80;;;10.38;;
21591;SDS011;10958;50.892;3.992;2022-10-13T16:18:57;15.83;;;10.67;;
21591;SDS011;10958;50.892;3.992;2022-10-13T16:21:24;14.23;;;10.30;;
21591;SDS011;10958;50.892;3.992;2022-10-13T16:23:50;12.57;;;8.90;;
21591;SDS011;10958;50.892;3.992;2022-10-13T16:26:17;13.38;;;8.65;;
21591;SDS011;10958;50.892;3.992;2022-10-13T16:28:43;12.32;;;8.80;;
21591;SDS011;10958;50.892;3.992;2022-10-13T16:31:10;13.38;;;8.25;;
21591;SDS011;10958;50.892;3.992;2022-10-13T16:33:37;22.60;;;15.25;;
21591;SDS011;10958;50.892;3.992;2022-10-13T16:36:07;15.90;;;10.80;;
21591;SDS011;10958;50.892;3.992;2022-10-13T16:38:37;20.08;;;12.98;;
21591;SDS011;10958;50.892;3.992;2022-10-13T16:41:07;16.02;;;11.07;;
21591;SDS011;10958;50.892;3.992;2022-10-13T16:43:36;19.92;;;13.73;;
21591;SDS011;10958;50.892;3.992;2022-10-13T16:46:02;19.48;;;14.07;;
21591;SDS011;10958;50.892;3.992;2022-10-13T16:48:30;14.88;;;10.35;;
21591;SDS011;10958;50.892;3.992;2022-10-13T16:50:57;18.70;;;13.13;;
21591;SDS011;10958;50.892;3.992;2022-10-13T16:53:24;29.45;;;17.92;;
21591;SDS011;10958;50.892;3.992;2022-10-13T16:55:50;21.77;;;15.82;;
21591;SDS011;10958;50.892;3.992;2022-10-13T16:58:15;23.50;;;16.00;;